createdAt,value
2023-05-03T00:01:32.065Z,6.60
2023-05-03T00:03:58.537Z,6.13
2023-05-03T00:06:25.486Z,6.15
2023-05-03T00:08:52.011Z,7.38
2023-05-03T00:11:18.369Z,6.40
2023-05-03T00:13:44.795Z,8.80
2023-05-03T00:16:11.192Z,6.60
2023-05-03T00:18:37.612Z,8.07
2023-05-03T00:21:04.284Z,8.50
2023-05-03T00:23:30.736Z,9.90
2023-05-03T00:25:58.547Z,6.50
2023-05-03T00:28:25.985Z,6.05
2023-05-03T00:30:53.272Z,8.60
2023-05-03T00:33:20.082Z,8.38
2023-05-03T00:35:46.595Z,9.23
2023-05-03T00:38:15.988Z,9.60
2023-05-03T00:40:43.126Z,9.80
2023-05-03T00:43:12.417Z,7.80
2023-05-03T00:45:38.861Z,7.10
2023-05-03T00:48:06.182Z,10.65
2023-05-03T00:50:32.682Z,9.15
2023-05-03T00:52:59.201Z,10.07
2023-05-03T00:55:29.374Z,11.15
2023-05-03T00:57:55.927Z,7.78
2023-05-03T01:00:23.289Z,8.73
2023-05-03T01:02:49.804Z,6.60
2023-05-03T01:05:16.940Z,9.00
2023-05-03T01:08:18.339Z,6.70
2023-05-03T01:11:07.440Z,7.53
2023-05-03T01:13:36.778Z,10.63
2023-05-03T01:16:14.241Z,8.63
2023-05-03T01:18:49.163Z,6.03
2023-05-03T01:21:18.450Z,9.50
2023-05-03T01:24:03.637Z,6.47
2023-05-03T01:26:30.142Z,7.57
2023-05-03T01:28:56.682Z,7.78
2023-05-03T01:31:44.472Z,7.47
2023-05-03T01:34:16.899Z,7.45
2023-05-03T01:36:45.090Z,8.65
2023-05-03T01:39:20.952Z,9.18
2023-05-03T01:41:50.837Z,9.65
2023-05-03T01:44:19.840Z,11.27
2023-05-03T01:46:47.284Z,7.57
2023-05-03T01:49:13.981Z,7.65
2023-05-03T01:51:40.397Z,9.50
2023-05-03T01:54:06.850Z,6.95
2023-05-03T01:56:35.590Z,10.35
2023-05-03T01:59:02.834Z,15.18
2023-05-03T02:01:29.318Z,9.45
2023-05-03T02:03:55.740Z,10.85
2023-05-03T02:06:23.796Z,8.32
2023-05-03T02:08:50.332Z,10.27
2023-05-03T02:11:16.760Z,8.70
2023-05-03T02:13:43.292Z,8.43
2023-05-03T02:16:09.845Z,6.63
2023-05-03T02:18:36.757Z,10.27
2023-05-03T02:21:04.696Z,10.10
2023-05-03T02:23:31.309Z,9.65
2023-05-03T02:25:58.045Z,9.45
2023-05-03T02:28:24.425Z,8.85
2023-05-03T02:30:50.987Z,7.22
2023-05-03T02:33:17.480Z,9.38
2023-05-03T02:35:44.224Z,8.82
2023-05-03T02:38:11.037Z,7.25
2023-05-03T02:40:37.464Z,8.48
2023-05-03T02:43:04.888Z,10.70
2023-05-03T02:45:31.734Z,8.00
2023-05-03T02:47:59.279Z,12.38
2023-05-03T02:50:27.253Z,8.88
2023-05-03T02:52:53.713Z,10.20
2023-05-03T02:55:20.765Z,9.45
2023-05-03T02:57:47.869Z,7.97
2023-05-03T03:00:18.282Z,10.77
2023-05-03T03:02:44.794Z,6.78
2023-05-03T03:05:12.149Z,8.82
2023-05-03T03:07:40.384Z,11.55
2023-05-03T03:10:08.149Z,11.52
2023-05-03T03:12:36.307Z,9.75
2023-05-03T03:15:06.317Z,9.48
2023-05-03T03:17:33.510Z,9.55
2023-05-03T03:20:02.002Z,9.52
2023-05-03T03:22:28.788Z,9.07
2023-05-03T03:24:55.230Z,9.98
2023-05-03T03:27:23.076Z,13.27
2023-05-03T03:29:49.820Z,12.57
2023-05-03T03:32:17.172Z,9.82
2023-05-03T03:34:44.023Z,9.02
2023-05-03T03:37:11.097Z,10.25
2023-05-03T03:39:40.798Z,11.77
2023-05-03T03:42:09.396Z,10.43
2023-05-03T03:44:35.857Z,9.57
2023-05-03T03:47:02.753Z,10.45
2023-05-03T03:49:29.178Z,9.35
2023-05-03T03:51:56.031Z,10.90
2023-05-03T03:54:22.425Z,9.02
2023-05-03T03:56:51.088Z,10.77
2023-05-03T03:59:17.913Z,9.48
2023-05-03T04:01:45.914Z,11.40
2023-05-03T04:04:13.204Z,10.85
2023-05-03T04:06:40.931Z,8.75
2023-05-03T04:09:11.211Z,12.38
2023-05-03T04:11:38.345Z,7.57
2023-05-03T04:14:05.592Z,9.63
2023-05-03T04:16:32.755Z,10.95
2023-05-03T04:19:01.710Z,11.73
2023-05-03T04:21:28.946Z,10.43
2023-05-03T04:23:56.765Z,14.80
2023-05-03T04:26:31.661Z,10.93
2023-05-03T04:29:06.110Z,9.15
2023-05-03T04:31:33.313Z,13.07
2023-05-03T04:34:00.948Z,10.57
2023-05-03T04:36:29.751Z,10.18
2023-05-03T04:38:57.816Z,9.98
2023-05-03T04:41:25.457Z,11.73
2023-05-03T04:43:53.096Z,11.10
2023-05-03T04:46:20.307Z,11.18
2023-05-03T04:48:47.405Z,9.85
2023-05-03T04:51:14.370Z,11.68
2023-05-03T04:53:45.193Z,11.35
2023-05-03T04:56:15.911Z,13.68
2023-05-03T04:58:44.454Z,13.85
2023-05-03T05:01:12.172Z,15.85
2023-05-03T05:03:38.765Z,13.75
2023-05-03T05:06:12.793Z,15.00
2023-05-03T05:08:41.542Z,12.07
2023-05-03T05:11:10.772Z,13.65
2023-05-03T05:13:39.048Z,14.57
2023-05-03T05:16:06.058Z,16.00
2023-05-03T05:18:32.824Z,13.73
2023-05-03T05:21:02.008Z,13.80
2023-05-03T05:23:29.269Z,13.88
2023-05-03T05:26:00.267Z,13.43
2023-05-03T05:28:29.400Z,18.90
2023-05-03T05:30:56.002Z,14.10
2023-05-03T05:33:22.902Z,10.90
2023-05-03T05:35:49.880Z,10.45
2023-05-03T05:38:20.001Z,15.27
2023-05-03T05:40:46.763Z,15.13
2023-05-03T05:43:13.229Z,13.68
2023-05-03T05:45:43.046Z,12.52
2023-05-03T05:48:09.569Z,11.48
2023-05-03T05:50:36.520Z,13.05
2023-05-03T05:53:09.608Z,11.75
2023-05-03T05:55:39.907Z,16.40
2023-05-03T05:58:07.258Z,10.90
2023-05-03T06:00:42.314Z,12.60
2023-05-03T06:03:09.294Z,12.82
2023-05-03T06:05:36.150Z,13.43
2023-05-03T06:08:02.733Z,15.35
2023-05-03T06:10:29.179Z,14.55
2023-05-03T06:12:57.039Z,13.45
2023-05-03T06:15:26.142Z,15.90
2023-05-03T06:17:54.137Z,14.82
2023-05-03T06:20:20.798Z,14.45
2023-05-03T06:22:48.495Z,13.80
2023-05-03T06:25:17.667Z,13.77
2023-05-03T06:27:47.675Z,14.40
2023-05-03T06:30:15.168Z,10.05
2023-05-03T06:32:43.639Z,12.68
2023-05-03T06:35:12.516Z,16.02
2023-05-03T06:37:40.433Z,12.75
2023-05-03T06:40:07.690Z,13.75
2023-05-03T06:42:36.238Z,17.88
2023-05-03T06:45:08.132Z,11.50
2023-05-03T06:47:37.203Z,13.45
2023-05-03T06:50:04.548Z,12.38
2023-05-03T06:52:31.860Z,10.00
2023-05-03T06:54:58.678Z,12.43
2023-05-03T06:57:27.471Z,11.13
2023-05-03T06:59:55.214Z,9.50
2023-05-03T07:02:21.647Z,12.02
2023-05-03T07:04:48.121Z,12.35
2023-05-03T07:07:15.808Z,13.50
2023-05-03T07:09:43.538Z,10.20
2023-05-03T07:12:11.183Z,14.95
2023-05-03T07:14:39.171Z,14.35
2023-05-03T07:17:05.654Z,12.93
2023-05-03T07:19:32.174Z,11.48
2023-05-03T07:21:58.910Z,12.30
2023-05-03T07:24:26.256Z,12.55
2023-05-03T07:26:53.558Z,12.10
2023-05-03T07:29:20.521Z,15.02
2023-05-03T07:31:47.538Z,13.38
2023-05-03T07:34:14.183Z,12.32
2023-05-03T07:36:40.690Z,11.32
2023-05-03T07:39:07.777Z,10.75
2023-05-03T07:41:34.180Z,10.35
2023-05-03T07:44:00.777Z,13.10
2023-05-03T07:46:27.298Z,14.48
2023-05-03T07:48:53.898Z,9.40
2023-05-03T07:51:21.128Z,9.38
2023-05-03T07:53:47.596Z,10.32
2023-05-03T07:56:14.022Z,8.70
2023-05-03T07:58:41.062Z,8.73
2023-05-03T08:01:08.245Z,10.40
2023-05-03T08:03:35.056Z,5.68
2023-05-03T08:06:01.748Z,7.57
2023-05-03T08:08:28.412Z,7.93
2023-05-03T08:10:54.931Z,9.90
2023-05-03T08:13:22.538Z,5.25
2023-05-03T08:15:50.112Z,5.45
2023-05-03T08:18:16.752Z,6.43
2023-05-03T08:20:44.831Z,5.45
2023-05-03T08:23:11.282Z,6.45
2023-05-03T08:25:37.833Z,6.10
2023-05-03T08:28:04.467Z,6.47
2023-05-03T08:30:31.361Z,8.85
2023-05-03T08:32:57.926Z,12.77
2023-05-03T08:35:24.387Z,7.82
2023-05-03T08:37:50.843Z,6.18
2023-05-03T08:40:17.696Z,5.40
2023-05-03T08:42:45.546Z,6.90
2023-05-03T08:45:15.583Z,7.65
2023-05-03T08:47:45.116Z,6.88
2023-05-03T08:50:13.173Z,6.90
2023-05-03T08:52:41.522Z,6.38
2023-05-03T08:55:09.259Z,6.22
2023-05-03T08:57:36.079Z,6.30
2023-05-03T09:00:06.483Z,6.50
2023-05-03T09:02:34.916Z,10.63
2023-05-03T09:05:01.868Z,8.68
2023-05-03T09:07:28.359Z,6.57
2023-05-03T09:09:54.908Z,8.82
2023-05-03T09:12:38.425Z,8.93
2023-05-03T09:15:06.376Z,6.45
2023-05-03T09:17:33.394Z,6.85
2023-05-03T09:20:00.468Z,6.50
2023-05-03T09:22:30.862Z,6.72
2023-05-03T09:24:59.559Z,9.65
2023-05-03T09:27:27.017Z,12.57
2023-05-03T09:29:54.520Z,10.98
2023-05-03T09:32:22.753Z,14.35
2023-05-03T09:34:49.195Z,15.80
2023-05-03T09:37:15.902Z,10.23
2023-05-03T09:39:45.166Z,7.78
2023-05-03T09:42:12.888Z,7.53
2023-05-03T09:44:53.710Z,11.50
2023-05-03T09:47:21.509Z,5.75
2023-05-03T09:49:48.034Z,5.55
2023-05-03T09:52:14.602Z,7.88
2023-05-03T09:54:42.300Z,8.90
2023-05-03T09:57:09.194Z,7.00
2023-05-03T09:59:37.885Z,7.70
2023-05-03T10:02:07.338Z,5.53
2023-05-03T10:04:46.839Z,10.07
2023-05-03T10:07:17.696Z,6.47
2023-05-03T10:09:46.696Z,10.45
2023-05-03T10:12:16.656Z,7.93
2023-05-03T10:14:45.474Z,5.57
2023-05-03T10:17:32.019Z,8.70
2023-05-03T10:20:29.934Z,7.97
2023-05-03T10:23:06.042Z,6.75
2023-05-03T10:25:34.533Z,10.38
2023-05-03T10:28:05.894Z,4.78
2023-05-03T10:30:34.542Z,5.18
2023-05-03T10:33:13.292Z,7.05
2023-05-03T10:35:42.046Z,7.18
2023-05-03T10:38:16.354Z,11.88
2023-05-03T10:40:44.334Z,5.82
2023-05-03T10:43:32.151Z,7.45
2023-05-03T10:45:58.840Z,6.03
2023-05-03T10:48:26.593Z,7.15
2023-05-03T10:50:53.110Z,6.93
2023-05-03T10:53:32.383Z,6.30
2023-05-03T10:56:16.774Z,6.70
2023-05-03T10:58:45.890Z,6.13
2023-05-03T11:01:15.289Z,8.55
2023-05-03T11:03:50.966Z,5.68
2023-05-03T11:06:49.414Z,7.35
2023-05-03T11:09:16.505Z,5.85
2023-05-03T11:11:43.517Z,7.22
2023-05-03T11:14:11.669Z,6.55
2023-05-03T11:16:47.404Z,4.25
2023-05-03T11:19:15.790Z,5.93
2023-05-03T11:21:43.333Z,5.50
2023-05-03T11:24:10.085Z,5.65
2023-05-03T11:26:40.389Z,5.18
2023-05-03T11:29:10.578Z,7.85
2023-05-03T11:31:37.168Z,5.85
2023-05-03T11:34:03.968Z,6.05
2023-05-03T11:36:31.040Z,7.05
2023-05-03T11:38:57.706Z,6.82
2023-05-03T11:41:24.337Z,5.38
2023-05-03T11:44:00.643Z,4.80
2023-05-03T11:46:35.065Z,6.43
2023-05-03T11:49:03.001Z,4.53
2023-05-03T11:51:30.132Z,5.55
2023-05-03T11:53:57.253Z,6.80
2023-05-03T11:56:23.979Z,5.35
2023-05-03T11:58:57.576Z,6.82
2023-05-03T12:01:26.277Z,4.35
2023-05-03T12:04:05.474Z,4.45
2023-05-03T12:06:35.194Z,8.80
2023-05-03T12:09:03.875Z,5.00
2023-05-03T12:11:32.746Z,3.53
2023-05-03T12:14:02.169Z,4.10
2023-05-03T12:16:46.600Z,5.40
2023-05-03T12:19:24.191Z,4.40
2023-05-03T12:22:04.874Z,8.95
2023-05-03T12:24:39.381Z,5.43
2023-05-03T12:27:08.196Z,6.65
2023-05-03T12:29:35.686Z,5.38
2023-05-03T12:32:04.173Z,3.92
2023-05-03T12:34:35.815Z,5.13
2023-05-03T12:37:04.646Z,3.00
2023-05-03T12:39:33.069Z,4.25
2023-05-03T12:44:33.067Z,4.78
2023-05-03T12:47:01.601Z,4.90
2023-05-03T12:49:28.613Z,7.22
2023-05-03T12:52:18.779Z,4.85
2023-05-03T12:54:48.784Z,5.82
2023-05-03T12:57:22.640Z,4.68
2023-05-03T12:59:53.937Z,4.10
2023-05-03T13:05:11.529Z,4.88
2023-05-03T13:07:43.152Z,6.05
2023-05-03T13:12:40.468Z,7.68
2023-05-03T13:15:08.335Z,4.10
2023-05-03T13:17:34.956Z,5.63
2023-05-03T13:20:01.422Z,3.58
2023-05-03T13:22:28.599Z,3.47
2023-05-03T13:24:55.977Z,4.93
2023-05-03T13:27:22.924Z,5.63
2023-05-03T13:29:49.762Z,5.20
2023-05-03T13:32:16.656Z,5.28
2023-05-03T13:34:43.330Z,4.03
2023-05-03T13:37:11.467Z,4.00
2023-05-03T13:39:38.137Z,4.07
2023-05-03T13:42:04.638Z,3.30
2023-05-03T13:44:31.134Z,4.85
2023-05-03T13:46:57.557Z,6.40
2023-05-03T13:49:25.458Z,3.00
2023-05-03T13:51:51.868Z,4.45
2023-05-03T13:54:18.412Z,4.32
2023-05-03T13:56:44.892Z,3.75
2023-05-03T13:59:13.671Z,4.47
2023-05-03T14:01:41.082Z,4.38
2023-05-03T14:04:07.621Z,6.07
2023-05-03T14:06:34.401Z,2.72
2023-05-03T14:09:01.703Z,3.47
2023-05-03T14:11:30.421Z,4.68
2023-05-03T14:13:58.489Z,2.90
2023-05-03T14:16:40.007Z,6.03
2023-05-03T14:19:07.832Z,5.18
2023-05-03T14:21:34.690Z,4.25
2023-05-03T14:24:01.590Z,4.70
2023-05-03T14:26:29.376Z,4.07
2023-05-03T14:28:56.118Z,4.43
2023-05-03T14:31:22.681Z,5.85
2023-05-03T14:33:49.158Z,4.28
2023-05-03T14:36:15.909Z,3.95
2023-05-03T14:38:42.461Z,7.53
2023-05-03T14:41:09.199Z,4.13
2023-05-03T14:43:35.667Z,3.83
2023-05-03T14:46:02.664Z,4.88
2023-05-03T14:48:29.070Z,3.95
2023-05-03T14:50:56.389Z,4.43
2023-05-03T14:53:23.805Z,2.35
2023-05-03T14:55:50.338Z,4.10
2023-05-03T14:58:17.196Z,3.92
2023-05-03T15:00:43.794Z,3.30
2023-05-03T15:03:12.190Z,3.70
2023-05-03T15:05:43.805Z,4.72
2023-05-03T15:08:10.644Z,4.35
2023-05-03T15:10:41.331Z,5.55
2023-05-03T15:13:09.494Z,5.07
2023-05-03T15:15:37.107Z,4.80
2023-05-03T15:18:03.725Z,3.42
2023-05-03T15:20:30.156Z,6.35
2023-05-03T15:22:56.635Z,3.67
2023-05-03T15:25:23.068Z,3.67
2023-05-03T15:27:51.245Z,5.35
2023-05-03T15:30:18.022Z,3.83
2023-05-03T15:32:44.776Z,6.35
2023-05-03T15:35:11.877Z,4.95
2023-05-03T15:37:38.416Z,4.38
2023-05-03T15:40:05.838Z,5.75
2023-05-03T15:42:32.423Z,3.90
2023-05-03T15:44:58.903Z,5.10
2023-05-03T15:47:26.379Z,6.13
2023-05-03T15:49:52.960Z,6.75
2023-05-03T15:52:19.430Z,4.40
2023-05-03T15:54:46.576Z,6.70
2023-05-03T15:57:13.755Z,5.22
2023-05-03T15:59:40.644Z,5.70
2023-05-03T16:02:07.502Z,5.43
2023-05-03T16:04:37.000Z,5.93
2023-05-03T16:07:04.504Z,5.25
2023-05-03T16:09:31.265Z,6.18
2023-05-03T16:11:59.021Z,7.25
2023-05-03T16:14:26.345Z,5.78
2023-05-03T16:16:54.150Z,4.93
2023-05-03T16:19:21.421Z,8.90
2023-05-03T16:21:48.166Z,5.28
2023-05-03T16:24:14.866Z,4.47
2023-05-03T16:26:41.618Z,4.72
2023-05-03T16:29:08.371Z,4.72
2023-05-03T16:31:34.880Z,5.22
2023-05-03T16:34:01.792Z,6.97
2023-05-03T16:36:28.229Z,4.80
2023-05-03T16:38:54.745Z,5.10
2023-05-03T16:41:21.292Z,6.80
2023-05-03T16:43:47.955Z,7.63
2023-05-03T16:46:14.482Z,11.02
2023-05-03T16:48:41.344Z,5.65
2023-05-03T16:51:07.787Z,6.03
2023-05-03T16:53:34.283Z,6.22
2023-05-03T16:56:00.897Z,9.13
2023-05-03T16:58:27.351Z,7.30
2023-05-03T17:00:53.847Z,7.10
2023-05-03T17:03:20.433Z,6.07
2023-05-03T17:05:46.964Z,10.40
2023-05-03T17:08:13.580Z,5.80
2023-05-03T17:10:40.246Z,6.13
2023-05-03T17:13:09.333Z,8.45
2023-05-03T17:15:36.999Z,7.90
2023-05-03T17:18:04.890Z,7.38
2023-05-03T17:20:32.808Z,6.75
2023-05-03T17:22:59.275Z,6.32
2023-05-03T17:25:25.915Z,7.13
2023-05-03T17:27:52.822Z,9.18
2023-05-03T17:30:21.138Z,5.47
2023-05-03T17:32:48.350Z,6.93
2023-05-03T17:35:14.905Z,5.72
2023-05-03T17:37:41.595Z,4.00
2023-05-03T17:40:08.745Z,6.90
2023-05-03T17:42:35.434Z,5.78
2023-05-03T17:45:02.732Z,6.20
2023-05-03T17:47:29.294Z,6.85
2023-05-03T17:49:56.520Z,6.32
2023-05-03T17:52:23.322Z,6.65
2023-05-03T17:54:52.601Z,5.95
2023-05-03T17:57:21.909Z,5.65
2023-05-03T17:59:48.689Z,8.00
2023-05-03T18:02:15.239Z,7.63
2023-05-03T18:04:41.671Z,6.78
2023-05-03T18:07:08.233Z,9.23
2023-05-03T18:09:34.667Z,10.73
2023-05-03T18:12:03.344Z,7.40
2023-05-03T18:14:30.230Z,10.10
2023-05-03T18:16:56.640Z,14.85
2023-05-03T18:19:23.742Z,12.82
2023-05-03T18:21:50.318Z,14.88
2023-05-03T18:24:16.891Z,12.18
2023-05-03T18:26:43.320Z,11.20
2023-05-03T18:29:09.967Z,6.00
2023-05-03T18:31:36.527Z,11.48
2023-05-03T18:34:03.111Z,6.85
2023-05-03T18:36:29.567Z,9.82
2023-05-03T18:38:56.585Z,6.63
2023-05-03T18:41:23.049Z,6.88
2023-05-03T18:43:50.350Z,5.97
2023-05-03T18:46:18.568Z,8.07
2023-05-03T18:48:45.936Z,8.73
2023-05-03T18:51:12.540Z,8.32
2023-05-03T18:53:38.990Z,8.00
2023-05-03T18:56:05.527Z,7.90
2023-05-03T18:58:32.481Z,6.75
2023-05-03T19:01:00.206Z,9.45
2023-05-03T19:03:30.210Z,7.00
2023-05-03T19:06:07.487Z,7.57
2023-05-03T19:08:34.454Z,9.10
2023-05-03T19:11:11.131Z,7.00
2023-05-03T19:13:37.596Z,7.95
2023-05-03T19:16:04.221Z,7.97
2023-05-03T19:18:31.809Z,7.07
2023-05-03T19:20:59.356Z,11.05
2023-05-03T19:23:25.916Z,9.05
2023-05-03T19:25:52.282Z,8.18
2023-05-03T19:28:18.784Z,6.97
2023-05-03T19:30:45.591Z,7.68
2023-05-03T19:33:12.232Z,9.55
2023-05-03T19:35:42.434Z,7.85
2023-05-03T19:38:08.924Z,9.85
2023-05-03T19:40:36.568Z,9.35
2023-05-03T19:43:03.002Z,7.72
2023-05-03T19:45:29.980Z,6.38
2023-05-03T19:47:56.578Z,10.52
2023-05-03T19:50:23.094Z,8.68
2023-05-03T19:52:53.371Z,9.02
2023-05-03T19:55:20.288Z,6.07
2023-05-03T19:57:47.081Z,5.85
2023-05-03T20:00:16.304Z,8.25
2023-05-03T20:02:42.970Z,7.28
2023-05-03T20:05:09.537Z,8.95
2023-05-03T20:07:36.035Z,7.35
2023-05-03T20:10:02.818Z,7.03
2023-05-03T20:12:29.628Z,9.25
2023-05-03T20:14:56.044Z,8.93
2023-05-03T20:17:22.485Z,7.57
2023-05-03T20:19:49.908Z,6.53
2023-05-03T20:22:17.019Z,8.90
2023-05-03T20:24:43.669Z,6.88
2023-05-03T20:27:10.224Z,10.82
2023-05-03T20:29:36.598Z,10.70
2023-05-03T20:32:03.590Z,7.15
2023-05-03T20:34:30.239Z,6.78
2023-05-03T20:36:57.109Z,9.07
2023-05-03T20:39:23.988Z,6.82
2023-05-03T20:41:50.456Z,5.85
2023-05-03T20:44:16.874Z,7.80
2023-05-03T20:46:43.273Z,7.28
2023-05-03T20:49:10.372Z,8.32
2023-05-03T20:51:37.471Z,6.70
2023-05-03T20:54:04.466Z,9.52
2023-05-03T20:56:32.398Z,6.95
2023-05-03T20:58:58.834Z,7.55
2023-05-03T21:01:25.290Z,7.15
2023-05-03T21:03:51.979Z,7.32
2023-05-03T21:06:18.474Z,11.15
2023-05-03T21:08:44.888Z,11.55
2023-05-03T21:11:11.399Z,5.32
2023-05-03T21:13:38.387Z,5.97
2023-05-03T21:16:07.713Z,7.88
2023-05-03T21:18:34.324Z,6.00
2023-05-03T21:21:00.815Z,5.80
2023-05-03T21:23:27.324Z,10.13
2023-05-03T21:25:56.194Z,12.95
2023-05-03T21:28:23.297Z,8.45
2023-05-03T21:30:49.826Z,6.85
2023-05-03T21:33:16.648Z,6.90
2023-05-03T21:35:43.465Z,8.80
2023-05-03T21:38:09.914Z,8.55
2023-05-03T21:40:36.700Z,9.35
2023-05-03T21:43:04.212Z,8.25
2023-05-03T21:45:30.625Z,7.47
2023-05-03T21:47:57.082Z,9.50
2023-05-03T21:50:23.675Z,8.63
2023-05-03T21:52:50.095Z,10.05
2023-05-03T21:55:16.501Z,7.47
2023-05-03T21:57:43.268Z,6.70
2023-05-03T22:00:15.059Z,6.72
2023-05-03T22:02:41.631Z,7.07
2023-05-03T22:05:09.074Z,5.72
2023-05-03T22:07:35.541Z,7.95
2023-05-03T22:10:02.558Z,6.28
2023-05-03T22:12:29.437Z,7.28
2023-05-03T22:14:55.909Z,6.22
2023-05-03T22:17:22.807Z,6.82
2023-05-03T22:19:49.258Z,6.68
2023-05-03T22:22:15.969Z,6.10
2023-05-03T22:24:42.435Z,8.45
2023-05-03T22:27:08.829Z,6.40
2023-05-03T22:29:35.230Z,7.53
2023-05-03T22:32:01.738Z,6.60
2023-05-03T22:34:28.215Z,6.75
2023-05-03T22:36:54.683Z,8.70
2023-05-03T22:39:21.137Z,8.15
2023-05-03T22:41:47.510Z,7.38
2023-05-03T22:44:14.196Z,7.05
2023-05-03T22:46:40.583Z,8.15
2023-05-03T22:49:07.348Z,8.52
2023-05-03T22:51:33.795Z,5.70
2023-05-03T22:54:00.436Z,8.32
2023-05-03T22:56:27.259Z,7.40
2023-05-03T22:58:53.947Z,7.10
2023-05-03T23:01:20.616Z,6.63
2023-05-03T23:03:47.176Z,7.63
2023-05-03T23:06:14.351Z,9.75
2023-05-03T23:08:41.121Z,8.27
2023-05-03T23:11:07.515Z,7.90
2023-05-03T23:13:34.063Z,8.77
2023-05-03T23:16:01.323Z,7.40
2023-05-03T23:18:28.028Z,13.60
2023-05-03T23:20:54.420Z,11.10
2023-05-03T23:23:20.944Z,12.52
2023-05-03T23:25:47.368Z,14.10
2023-05-03T23:28:13.794Z,11.82
2023-05-03T23:30:45.145Z,11.00
2023-05-03T23:33:12.389Z,10.32
2023-05-03T23:35:40.786Z,15.57
2023-05-03T23:38:07.249Z,12.57
2023-05-03T23:40:33.808Z,10.80
2023-05-03T23:43:00.191Z,12.00
2023-05-03T23:45:27.225Z,13.30
2023-05-03T23:47:54.281Z,12.77
2023-05-03T23:50:20.989Z,10.70
2023-05-03T23:52:47.676Z,10.90
2023-05-03T23:55:14.174Z,14.20
2023-05-03T23:57:40.833Z,10.00
